sensor_id;sensor_type;location;lat;lon;timestamp;P1;durP1;ratioP1;P2;durP2;ratioP2
54259;SDS011;40172;53.022;7.012;2023-06-26T00:00:13;12.52;;;11.20;;
54259;SDS011;40172;53.022;7.012;2023-06-26T00:02:39;14.75;;;11.05;;
54259;SDS011;40172;53.022;7.012;2023-06-26T00:05:05;12.77;;;11.27;;
54259;SDS011;40172;53.022;7.012;2023-06-26T00:07:31;13.80;;;10.88;;
54259;SDS011;40172;53.022;7.012;2023-06-26T00:10:00;12.82;;;11.55;;
54259;SDS011;40172;53.022;7.012;2023-06-26T00:12:27;15.57;;;11.55;;
54259;SDS011;40172;53.022;7.012;2023-06-26T00:14:53;14.63;;;11.82;;
54259;SDS011;40172;53.022;7.012;2023-06-26T00:17:19;13.93;;;11.30;;
54259;SDS011;40172;53.022;7.012;2023-06-26T00:19:45;15.18;;;11.18;;
54259;SDS011;40172;53.022;7.012;2023-06-26T00:22:10;12.95;;;11.57;;
54259;SDS011;40172;53.022;7.012;2023-06-26T00:24:36;16.77;;;12.73;;
54259;SDS011;40172;53.022;7.012;2023-06-26T00:27:01;14.18;;;12.05;;
54259;SDS011;40172;53.022;7.012;2023-06-26T00:29:27;13.60;;;11.68;;
54259;SDS011;40172;53.022;7.012;2023-06-26T00:31:53;15.25;;;11.52;;
54259;SDS011;40172;53.022;7.012;2023-06-26T00:34:18;17.42;;;12.05;;
54259;SDS011;40172;53.022;7.012;2023-06-26T00:36:44;14.77;;;12.57;;
54259;SDS011;40172;53.022;7.012;2023-06-26T00:39:10;15.18;;;12.35;;
54259;SDS011;40172;53.022;7.012;2023-06-26T00:41:36;12.88;;;11.57;;
54259;SDS011;40172;53.022;7.012;2023-06-26T00:44:03;18.60;;;11.75;;
54259;SDS011;40172;53.022;7.012;2023-06-26T00:46:29;17.20;;;11.77;;
54259;SDS011;40172;53.022;7.012;2023-06-26T00:48:56;13.57;;;11.30;;
54259;SDS011;40172;53.022;7.012;2023-06-26T00:51:25;14.70;;;11.65;;
54259;SDS011;40172;53.022;7.012;2023-06-26T00:53:51;13.65;;;11.85;;
54259;SDS011;40172;53.022;7.012;2023-06-26T00:56:17;13.93;;;12.43;;
54259;SDS011;40172;53.022;7.012;2023-06-26T00:58:44;12.32;;;11.13;;
54259;SDS011;40172;53.022;7.012;2023-06-26T01:01:10;13.15;;;11.75;;
54259;SDS011;40172;53.022;7.012;2023-06-26T01:03:42;17.25;;;12.52;;
54259;SDS011;40172;53.022;7.012;2023-06-26T01:06:09;14.00;;;12.57;;
54259;SDS011;40172;53.022;7.012;2023-06-26T01:08:41;14.30;;;12.80;;
54259;SDS011;40172;53.022;7.012;2023-06-26T01:11:08;14.65;;;13.18;;
54259;SDS011;40172;53.022;7.012;2023-06-26T01:13:34;15.40;;;12.98;;
54259;SDS011;40172;53.022;7.012;2023-06-26T01:16:00;14.85;;;12.50;;
54259;SDS011;40172;53.022;7.012;2023-06-26T01:18:27;14.38;;;12.90;;
54259;SDS011;40172;53.022;7.012;2023-06-26T01:20:55;16.17;;;12.68;;
54259;SDS011;40172;53.022;7.012;2023-06-26T01:28:34;14.85;;;12.68;;
54259;SDS011;40172;53.022;7.012;2023-06-26T01:31:02;15.60;;;12.48;;
54259;SDS011;40172;53.022;7.012;2023-06-26T01:33:30;13.50;;;12.10;;
54259;SDS011;40172;53.022;7.012;2023-06-26T01:35:56;14.32;;;12.98;;
54259;SDS011;40172;53.022;7.012;2023-06-26T01:38:22;14.63;;;12.60;;
54259;SDS011;40172;53.022;7.012;2023-06-26T01:40:48;14.77;;;13.27;;
54259;SDS011;40172;53.022;7.012;2023-06-26T01:43:18;14.00;;;12.60;;
54259;SDS011;40172;53.022;7.012;2023-06-26T01:45:45;14.40;;;12.90;;
54259;SDS011;40172;53.022;7.012;2023-06-26T01:48:13;13.88;;;12.27;;
54259;SDS011;40172;53.022;7.012;2023-06-26T01:50:42;15.05;;;12.82;;
54259;SDS011;40172;53.022;7.012;2023-06-26T01:53:14;15.20;;;13.48;;
54259;SDS011;40172;53.022;7.012;2023-06-26T01:55:46;15.98;;;13.05;;
54259;SDS011;40172;53.022;7.012;2023-06-26T01:58:15;14.68;;;12.85;;
54259;SDS011;40172;53.022;7.012;2023-06-26T02:00:42;16.33;;;13.38;;
54259;SDS011;40172;53.022;7.012;2023-06-26T02:03:07;14.07;;;12.68;;
54259;SDS011;40172;53.022;7.012;2023-06-26T02:05:33;17.75;;;12.65;;
54259;SDS011;40172;53.022;7.012;2023-06-26T02:07:59;14.40;;;12.32;;
54259;SDS011;40172;53.022;7.012;2023-06-26T02:10:26;14.40;;;13.02;;
54259;SDS011;40172;53.022;7.012;2023-06-26T02:12:52;14.15;;;12.70;;
54259;SDS011;40172;53.022;7.012;2023-06-26T02:15:17;18.20;;;13.05;;
54259;SDS011;40172;53.022;7.012;2023-06-26T02:17:43;15.00;;;13.32;;
54259;SDS011;40172;53.022;7.012;2023-06-26T02:20:13;15.18;;;13.20;;
54259;SDS011;40172;53.022;7.012;2023-06-26T02:22:40;18.88;;;13.65;;
54259;SDS011;40172;53.022;7.012;2023-06-26T02:25:06;14.05;;;12.57;;
54259;SDS011;40172;53.022;7.012;2023-06-26T02:27:32;15.88;;;12.82;;
54259;SDS011;40172;53.022;7.012;2023-06-26T02:29:57;14.90;;;13.32;;
54259;SDS011;40172;53.022;7.012;2023-06-26T02:32:23;14.40;;;12.73;;
54259;SDS011;40172;53.022;7.012;2023-06-26T02:34:48;13.68;;;12.27;;
54259;SDS011;40172;53.022;7.012;2023-06-26T02:37:16;15.20;;;11.98;;
54259;SDS011;40172;53.022;7.012;2023-06-26T02:39:42;13.50;;;12.10;;
54259;SDS011;40172;53.022;7.012;2023-06-26T02:42:08;14.43;;;12.63;;
54259;SDS011;40172;53.022;7.012;2023-06-26T02:44:33;13.10;;;11.73;;
54259;SDS011;40172;53.022;7.012;2023-06-26T02:46:59;14.05;;;12.13;;
54259;SDS011;40172;53.022;7.012;2023-06-26T02:49:24;16.08;;;12.20;;
54259;SDS011;40172;53.022;7.012;2023-06-26T02:51:50;14.57;;;12.30;;
54259;SDS011;40172;53.022;7.012;2023-06-26T02:54:15;13.63;;;12.05;;
54259;SDS011;40172;53.022;7.012;2023-06-26T02:56:41;17.85;;;12.18;;
54259;SDS011;40172;53.022;7.012;2023-06-26T02:59:07;13.77;;;12.25;;
54259;SDS011;40172;53.022;7.012;2023-06-26T03:01:33;14.43;;;12.60;;
54259;SDS011;40172;53.022;7.012;2023-06-26T03:03:58;17.13;;;12.30;;
54259;SDS011;40172;53.022;7.012;2023-06-26T03:06:25;13.10;;;11.80;;
54259;SDS011;40172;53.022;7.012;2023-06-26T03:08:52;14.65;;;12.10;;
54259;SDS011;40172;53.022;7.012;2023-06-26T03:11:18;14.32;;;12.02;;
54259;SDS011;40172;53.022;7.012;2023-06-26T03:13:44;16.20;;;12.52;;
54259;SDS011;40172;53.022;7.012;2023-06-26T03:16:10;15.23;;;12.13;;
54259;SDS011;40172;53.022;7.012;2023-06-26T03:18:35;14.20;;;11.65;;
54259;SDS011;40172;53.022;7.012;2023-06-26T03:21:01;15.27;;;11.75;;
54259;SDS011;40172;53.022;7.012;2023-06-26T03:23:27;13.80;;;11.65;;
54259;SDS011;40172;53.022;7.012;2023-06-26T03:25:52;13.93;;;11.85;;
54259;SDS011;40172;53.022;7.012;2023-06-26T03:28:18;17.17;;;13.18;;
54259;SDS011;40172;53.022;7.012;2023-06-26T03:30:43;15.32;;;12.77;;
54259;SDS011;40172;53.022;7.012;2023-06-26T03:33:09;16.20;;;12.82;;
54259;SDS011;40172;53.022;7.012;2023-06-26T03:35:35;15.20;;;12.43;;
54259;SDS011;40172;53.022;7.012;2023-06-26T03:38:01;14.10;;;12.60;;
54259;SDS011;40172;53.022;7.012;2023-06-26T03:40:27;14.80;;;13.15;;
54259;SDS011;40172;53.022;7.012;2023-06-26T03:42:52;15.00;;;13.27;;
54259;SDS011;40172;53.022;7.012;2023-06-26T03:45:18;13.15;;;11.82;;
54259;SDS011;40172;53.022;7.012;2023-06-26T03:47:44;14.75;;;12.77;;
54259;SDS011;40172;53.022;7.012;2023-06-26T03:50:13;14.15;;;12.68;;
54259;SDS011;40172;53.022;7.012;2023-06-26T03:52:42;13.57;;;12.27;;
54259;SDS011;40172;53.022;7.012;2023-06-26T03:55:08;15.25;;;12.43;;
54259;SDS011;40172;53.022;7.012;2023-06-26T03:57:33;14.70;;;12.50;;
54259;SDS011;40172;53.022;7.012;2023-06-26T03:59:59;14.65;;;12.52;;
54259;SDS011;40172;53.022;7.012;2023-06-26T04:02:25;13.98;;;12.32;;
54259;SDS011;40172;53.022;7.012;2023-06-26T04:04:51;14.93;;;11.73;;
54259;SDS011;40172;53.022;7.012;2023-06-26T04:07:17;16.88;;;12.35;;
54259;SDS011;40172;53.022;7.012;2023-06-26T04:09:43;15.77;;;12.20;;
54259;SDS011;40172;53.022;7.012;2023-06-26T04:12:09;13.38;;;12.07;;
54259;SDS011;40172;53.022;7.012;2023-06-26T04:14:35;14.80;;;12.30;;
54259;SDS011;40172;53.022;7.012;2023-06-26T04:17:00;19.02;;;12.32;;
54259;SDS011;40172;53.022;7.012;2023-06-26T04:19:29;12.55;;;10.70;;
54259;SDS011;40172;53.022;7.012;2023-06-26T04:21:55;13.48;;;11.25;;
54259;SDS011;40172;53.022;7.012;2023-06-26T04:24:21;16.65;;;11.43;;
54259;SDS011;40172;53.022;7.012;2023-06-26T04:26:46;13.73;;;11.45;;
54259;SDS011;40172;53.022;7.012;2023-06-26T04:29:12;18.40;;;10.85;;
54259;SDS011;40172;53.022;7.012;2023-06-26T04:31:38;12.10;;;10.75;;
54259;SDS011;40172;53.022;7.012;2023-06-26T04:34:04;14.55;;;10.43;;
54259;SDS011;40172;53.022;7.012;2023-06-26T04:36:30;14.55;;;10.50;;
54259;SDS011;40172;53.022;7.012;2023-06-26T04:38:56;13.18;;;10.57;;
54259;SDS011;40172;53.022;7.012;2023-06-26T04:41:23;13.80;;;10.73;;
54259;SDS011;40172;53.022;7.012;2023-06-26T04:43:49;12.50;;;10.60;;
54259;SDS011;40172;53.022;7.012;2023-06-26T04:46:15;13.65;;;10.90;;
54259;SDS011;40172;53.022;7.012;2023-06-26T04:48:41;13.57;;;10.63;;
54259;SDS011;40172;53.022;7.012;2023-06-26T04:51:06;12.82;;;10.65;;
54259;SDS011;40172;53.022;7.012;2023-06-26T04:53:32;14.52;;;11.50;;
54259;SDS011;40172;53.022;7.012;2023-06-26T04:55:57;12.85;;;11.25;;
54259;SDS011;40172;53.022;7.012;2023-06-26T04:58:23;12.57;;;11.02;;
54259;SDS011;40172;53.022;7.012;2023-06-26T05:00:49;16.10;;;11.43;;
54259;SDS011;40172;53.022;7.012;2023-06-26T05:03:15;12.52;;;10.60;;
54259;SDS011;40172;53.022;7.012;2023-06-26T05:05:42;13.07;;;10.45;;
54259;SDS011;40172;53.022;7.012;2023-06-26T05:08:21;11.48;;;9.40;;
54259;SDS011;40172;53.022;7.012;2023-06-26T05:10:48;12.73;;;9.43;;
54259;SDS011;40172;53.022;7.012;2023-06-26T05:13:14;11.07;;;9.02;;
54259;SDS011;40172;53.022;7.012;2023-06-26T05:15:42;12.80;;;8.30;;
54259;SDS011;40172;53.022;7.012;2023-06-26T05:18:08;10.82;;;8.75;;
54259;SDS011;40172;53.022;7.012;2023-06-26T05:20:35;12.93;;;9.25;;
54259;SDS011;40172;53.022;7.012;2023-06-26T05:23:01;12.00;;;8.52;;
54259;SDS011;40172;53.022;7.012;2023-06-26T05:25:28;12.02;;;9.00;;
54259;SDS011;40172;53.022;7.012;2023-06-26T05:27:55;12.52;;;8.25;;
54259;SDS011;40172;53.022;7.012;2023-06-26T05:30:22;12.43;;;8.63;;
54259;SDS011;40172;53.022;7.012;2023-06-26T05:32:51;10.63;;;8.75;;
54259;SDS011;40172;53.022;7.012;2023-06-26T05:35:18;10.75;;;8.30;;
54259;SDS011;40172;53.022;7.012;2023-06-26T05:37:45;12.88;;;8.07;;
54259;SDS011;40172;53.022;7.012;2023-06-26T05:40:17;15.32;;;9.02;;
54259;SDS011;40172;53.022;7.012;2023-06-26T05:42:43;14.35;;;7.82;;
54259;SDS011;40172;53.022;7.012;2023-06-26T05:45:10;14.48;;;8.38;;
54259;SDS011;40172;53.022;7.012;2023-06-26T05:47:36;13.93;;;8.00;;
54259;SDS011;40172;53.022;7.012;2023-06-26T05:50:02;15.38;;;8.02;;
54259;SDS011;40172;53.022;7.012;2023-06-26T05:52:28;12.60;;;7.85;;
54259;SDS011;40172;53.022;7.012;2023-06-26T05:54:55;14.82;;;8.02;;
54259;SDS011;40172;53.022;7.012;2023-06-26T05:57:23;11.25;;;7.93;;
54259;SDS011;40172;53.022;7.012;2023-06-26T05:59:50;15.07;;;8.68;;
54259;SDS011;40172;53.022;7.012;2023-06-26T06:02:16;17.23;;;8.90;;
54259;SDS011;40172;53.022;7.012;2023-06-26T06:04:42;16.90;;;8.82;;
54259;SDS011;40172;53.022;7.012;2023-06-26T06:07:07;20.52;;;9.20;;
54259;SDS011;40172;53.022;7.012;2023-06-26T06:09:33;19.00;;;9.20;;
54259;SDS011;40172;53.022;7.012;2023-06-26T06:11:59;15.82;;;8.23;;
54259;SDS011;40172;53.022;7.012;2023-06-26T06:14:25;19.90;;;8.77;;
54259;SDS011;40172;53.022;7.012;2023-06-26T06:16:50;26.35;;;9.75;;
54259;SDS011;40172;53.022;7.012;2023-06-26T06:19:16;16.95;;;9.23;;
54259;SDS011;40172;53.022;7.012;2023-06-26T06:21:41;15.02;;;8.90;;
54259;SDS011;40172;53.022;7.012;2023-06-26T06:24:08;20.67;;;9.15;;
54259;SDS011;40172;53.022;7.012;2023-06-26T06:26:34;18.65;;;9.38;;
54259;SDS011;40172;53.022;7.012;2023-06-26T06:29:00;20.40;;;9.57;;
54259;SDS011;40172;53.022;7.012;2023-06-26T06:31:26;18.65;;;8.73;;
54259;SDS011;40172;53.022;7.012;2023-06-26T06:33:53;17.45;;;8.90;;
54259;SDS011;40172;53.022;7.012;2023-06-26T06:36:19;17.20;;;8.70;;
54259;SDS011;40172;53.022;7.012;2023-06-26T06:38:45;15.50;;;8.32;;
54259;SDS011;40172;53.022;7.012;2023-06-26T06:41:10;18.38;;;8.45;;
54259;SDS011;40172;53.022;7.012;2023-06-26T06:43:37;17.38;;;7.97;;
54259;SDS011;40172;53.022;7.012;2023-06-26T06:46:03;15.05;;;8.00;;
54259;SDS011;40172;53.022;7.012;2023-06-26T06:48:29;19.85;;;7.20;;
54259;SDS011;40172;53.022;7.012;2023-06-26T06:50:54;18.90;;;7.07;;
54259;SDS011;40172;53.022;7.012;2023-06-26T06:53:20;15.10;;;7.03;;
54259;SDS011;40172;53.022;7.012;2023-06-26T06:55:46;14.65;;;7.45;;
54259;SDS011;40172;53.022;7.012;2023-06-26T06:58:11;12.95;;;6.03;;
54259;SDS011;40172;53.022;7.012;2023-06-26T07:00:37;14.45;;;5.57;;
54259;SDS011;40172;53.022;7.012;2023-06-26T07:03:03;13.75;;;5.82;;
54259;SDS011;40172;53.022;7.012;2023-06-26T07:05:28;14.32;;;5.50;;
54259;SDS011;40172;53.022;7.012;2023-06-26T07:07:54;16.52;;;5.35;;
54259;SDS011;40172;53.022;7.012;2023-06-26T07:10:20;11.05;;;4.40;;
54259;SDS011;40172;53.022;7.012;2023-06-26T07:12:46;15.32;;;5.40;;
54259;SDS011;40172;53.022;7.012;2023-06-26T07:15:12;11.57;;;4.03;;
54259;SDS011;40172;53.022;7.012;2023-06-26T07:17:37;15.20;;;4.20;;
54259;SDS011;40172;53.022;7.012;2023-06-26T07:20:04;15.23;;;3.83;;
54259;SDS011;40172;53.022;7.012;2023-06-26T07:22:33;12.20;;;3.60;;
54259;SDS011;40172;53.022;7.012;2023-06-26T07:24:59;14.15;;;3.70;;
54259;SDS011;40172;53.022;7.012;2023-06-26T07:27:26;12.48;;;3.97;;
54259;SDS011;40172;53.022;7.012;2023-06-26T07:29:52;12.07;;;3.58;;
54259;SDS011;40172;53.022;7.012;2023-06-26T07:32:17;15.80;;;3.17;;
54259;SDS011;40172;53.022;7.012;2023-06-26T07:34:43;10.60;;;3.30;;
54259;SDS011;40172;53.022;7.012;2023-06-26T07:37:08;11.40;;;3.50;;
54259;SDS011;40172;53.022;7.012;2023-06-26T07:39:34;9.90;;;3.65;;
54259;SDS011;40172;53.022;7.012;2023-06-26T07:42:00;8.52;;;2.88;;
54259;SDS011;40172;53.022;7.012;2023-06-26T07:44:25;7.20;;;2.90;;
54259;SDS011;40172;53.022;7.012;2023-06-26T07:46:52;8.18;;;2.85;;
54259;SDS011;40172;53.022;7.012;2023-06-26T07:49:17;11.95;;;2.92;;
54259;SDS011;40172;53.022;7.012;2023-06-26T07:51:43;10.75;;;2.83;;
54259;SDS011;40172;53.022;7.012;2023-06-26T07:54:08;14.05;;;3.13;;
54259;SDS011;40172;53.022;7.012;2023-06-26T07:57:07;16.20;;;2.70;;
54259;SDS011;40172;53.022;7.012;2023-06-26T07:59:28;9.95;;;2.40;;
54259;SDS011;40172;53.022;7.012;2023-06-26T08:01:54;9.27;;;3.05;;
54259;SDS011;40172;53.022;7.012;2023-06-26T08:04:22;10.73;;;2.83;;
54259;SDS011;40172;53.022;7.012;2023-06-26T08:06:49;7.50;;;2.50;;
54259;SDS011;40172;53.022;7.012;2023-06-26T08:09:16;8.93;;;2.70;;
54259;SDS011;40172;53.022;7.012;2023-06-26T08:11:43;7.47;;;2.30;;
54259;SDS011;40172;53.022;7.012;2023-06-26T08:14:08;7.85;;;2.67;;
54259;SDS011;40172;53.022;7.012;2023-06-26T08:16:34;8.30;;;2.33;;
54259;SDS011;40172;53.022;7.012;2023-06-26T08:18:59;8.27;;;2.70;;
54259;SDS011;40172;53.022;7.012;2023-06-26T08:21:26;10.02;;;2.72;;
54259;SDS011;40172;53.022;7.012;2023-06-26T08:23:51;13.90;;;3.20;;
54259;SDS011;40172;53.022;7.012;2023-06-26T08:26:17;11.27;;;2.75;;
54259;SDS011;40172;53.022;7.012;2023-06-26T08:28:42;12.65;;;2.78;;
54259;SDS011;40172;53.022;7.012;2023-06-26T08:31:08;8.68;;;2.67;;
54259;SDS011;40172;53.022;7.012;2023-06-26T08:33:34;8.95;;;2.50;;
54259;SDS011;40172;53.022;7.012;2023-06-26T08:35:59;9.15;;;2.50;;
54259;SDS011;40172;53.022;7.012;2023-06-26T08:38:25;8.73;;;2.33;;
54259;SDS011;40172;53.022;7.012;2023-06-26T08:40:51;12.32;;;2.30;;
54259;SDS011;40172;53.022;7.012;2023-06-26T08:43:16;10.75;;;2.60;;
54259;SDS011;40172;53.022;7.012;2023-06-26T08:45:42;16.95;;;2.97;;
54259;SDS011;40172;53.022;7.012;2023-06-26T08:48:08;11.88;;;2.60;;
54259;SDS011;40172;53.022;7.012;2023-06-26T08:50:35;7.72;;;2.22;;
54259;SDS011;40172;53.022;7.012;2023-06-26T08:55:54;7.05;;;1.92;;
54259;SDS011;40172;53.022;7.012;2023-06-26T08:58:23;10.20;;;2.30;;
54259;SDS011;40172;53.022;7.012;2023-06-26T09:00:49;7.93;;;2.22;;
54259;SDS011;40172;53.022;7.012;2023-06-26T09:03:15;6.70;;;1.88;;
54259;SDS011;40172;53.022;7.012;2023-06-26T09:05:40;7.47;;;2.15;;
54259;SDS011;40172;53.022;7.012;2023-06-26T09:08:06;5.90;;;2.00;;
54259;SDS011;40172;53.022;7.012;2023-06-26T09:10:33;9.77;;;2.03;;
54259;SDS011;40172;53.022;7.012;2023-06-26T09:12:59;7.57;;;2.38;;
54259;SDS011;40172;53.022;7.012;2023-06-26T09:15:26;7.05;;;2.17;;
54259;SDS011;40172;53.022;7.012;2023-06-26T09:17:58;7.22;;;1.95;;
54259;SDS011;40172;53.022;7.012;2023-06-26T09:20:25;8.35;;;2.50;;
54259;SDS011;40172;53.022;7.012;2023-06-26T09:22:55;6.68;;;1.90;;
54259;SDS011;40172;53.022;7.012;2023-06-26T09:25:21;11.40;;;2.30;;
54259;SDS011;40172;53.022;7.012;2023-06-26T09:27:48;4.85;;;1.95;;
54259;SDS011;40172;53.022;7.012;2023-06-26T09:30:16;5.22;;;1.70;;
54259;SDS011;40172;53.022;7.012;2023-06-26T09:32:42;6.07;;;1.92;;
54259;SDS011;40172;53.022;7.012;2023-06-26T09:35:07;5.93;;;1.83;;
54259;SDS011;40172;53.022;7.012;2023-06-26T09:37:34;8.65;;;2.00;;
54259;SDS011;40172;53.022;7.012;2023-06-26T09:39:59;6.18;;;1.90;;
54259;SDS011;40172;53.022;7.012;2023-06-26T09:42:25;4.28;;;1.88;;
54259;SDS011;40172;53.022;7.012;2023-06-26T09:44:51;6.90;;;2.42;;
54259;SDS011;40172;53.022;7.012;2023-06-26T09:47:18;5.10;;;1.88;;
54259;SDS011;40172;53.022;7.012;2023-06-26T09:49:44;4.80;;;2.00;;
54259;SDS011;40172;53.022;7.012;2023-06-26T09:52:14;3.83;;;1.98;;
54259;SDS011;40172;53.022;7.012;2023-06-26T09:54:44;6.53;;;1.92;;
54259;SDS011;40172;53.022;7.012;2023-06-26T09:57:15;7.57;;;2.25;;
54259;SDS011;40172;53.022;7.012;2023-06-26T09:59:41;7.82;;;2.10;;
54259;SDS011;40172;53.022;7.012;2023-06-26T10:02:10;4.50;;;2.00;;
54259;SDS011;40172;53.022;7.012;2023-06-26T10:04:36;4.95;;;2.30;;
54259;SDS011;40172;53.022;7.012;2023-06-26T10:07:04;8.55;;;2.05;;
54259;SDS011;40172;53.022;7.012;2023-06-26T10:09:32;5.72;;;2.15;;
54259;SDS011;40172;53.022;7.012;2023-06-26T10:12:01;6.47;;;2.20;;
54259;SDS011;40172;53.022;7.012;2023-06-26T10:14:35;6.15;;;2.03;;
54259;SDS011;40172;53.022;7.012;2023-06-26T10:17:03;4.05;;;2.00;;
54259;SDS011;40172;53.022;7.012;2023-06-26T10:19:31;6.50;;;2.15;;
54259;SDS011;40172;53.022;7.012;2023-06-26T10:21:59;9.07;;;2.15;;
54259;SDS011;40172;53.022;7.012;2023-06-26T10:24:28;4.47;;;1.92;;
54259;SDS011;40172;53.022;7.012;2023-06-26T10:27:02;3.90;;;1.90;;
54259;SDS011;40172;53.022;7.012;2023-06-26T10:29:30;7.57;;;2.35;;
54259;SDS011;40172;53.022;7.012;2023-06-26T10:31:58;4.97;;;2.00;;
54259;SDS011;40172;53.022;7.012;2023-06-26T10:34:35;4.38;;;1.98;;
54259;SDS011;40172;53.022;7.012;2023-06-26T10:37:01;13.85;;;2.13;;
54259;SDS011;40172;53.022;7.012;2023-06-26T10:42:14;7.35;;;2.00;;
54259;SDS011;40172;53.022;7.012;2023-06-26T10:44:41;8.13;;;2.20;;
54259;SDS011;40172;53.022;7.012;2023-06-26T10:47:08;7.50;;;1.90;;
54259;SDS011;40172;53.022;7.012;2023-06-26T10:49:35;5.55;;;2.17;;
54259;SDS011;40172;53.022;7.012;2023-06-26T10:52:02;7.90;;;2.47;;
54259;SDS011;40172;53.022;7.012;2023-06-26T10:54:28;5.20;;;2.00;;
54259;SDS011;40172;53.022;7.012;2023-06-26T10:56:55;4.65;;;1.95;;
54259;SDS011;40172;53.022;7.012;2023-06-26T10:59:22;12.25;;;2.72;;
54259;SDS011;40172;53.022;7.012;2023-06-26T11:02:01;8.65;;;2.42;;
54259;SDS011;40172;53.022;7.012;2023-06-26T11:04:36;4.65;;;1.95;;
54259;SDS011;40172;53.022;7.012;2023-06-26T11:12:56;5.32;;;2.20;;
54259;SDS011;40172;53.022;7.012;2023-06-26T11:15:16;3.40;;;1.67;;
54259;SDS011;40172;53.022;7.012;2023-06-26T11:17:44;3.85;;;2.00;;
54259;SDS011;40172;53.022;7.012;2023-06-26T11:20:13;6.53;;;2.10;;
54259;SDS011;40172;53.022;7.012;2023-06-26T11:22:41;4.25;;;1.95;;
54259;SDS011;40172;53.022;7.012;2023-06-26T11:25:08;4.60;;;2.08;;
54259;SDS011;40172;53.022;7.012;2023-06-26T11:30:04;6.13;;;2.20;;
54259;SDS011;40172;53.022;7.012;2023-06-26T11:35:03;5.97;;;1.90;;
54259;SDS011;40172;53.022;7.012;2023-06-26T11:37:30;4.50;;;1.73;;
54259;SDS011;40172;53.022;7.012;2023-06-26T11:39:56;7.20;;;2.10;;
54259;SDS011;40172;53.022;7.012;2023-06-26T11:42:22;5.05;;;2.08;;
54259;SDS011;40172;53.022;7.012;2023-06-26T11:44:49;8.32;;;2.10;;
54259;SDS011;40172;53.022;7.012;2023-06-26T11:47:18;8.05;;;2.22;;
54259;SDS011;40172;53.022;7.012;2023-06-26T11:49:45;4.78;;;2.08;;
54259;SDS011;40172;53.022;7.012;2023-06-26T11:52:12;7.03;;;1.90;;
54259;SDS011;40172;53.022;7.012;2023-06-26T11:54:38;6.95;;;1.90;;
54259;SDS011;40172;53.022;7.012;2023-06-26T11:57:04;7.47;;;2.03;;
54259;SDS011;40172;53.022;7.012;2023-06-26T11:59:34;7.18;;;2.20;;
54259;SDS011;40172;53.022;7.012;2023-06-26T12:02:01;7.72;;;2.15;;
54259;SDS011;40172;53.022;7.012;2023-06-26T12:04:34;5.22;;;1.85;;
54259;SDS011;40172;53.022;7.012;2023-06-26T12:07:01;3.45;;;1.60;;
54259;SDS011;40172;53.022;7.012;2023-06-26T12:09:32;7.07;;;1.88;;
54259;SDS011;40172;53.022;7.012;2023-06-26T12:12:00;6.97;;;2.10;;
54259;SDS011;40172;53.022;7.012;2023-06-26T12:14:26;6.85;;;1.80;;
54259;SDS011;40172;53.022;7.012;2023-06-26T12:16:53;5.93;;;1.65;;
54259;SDS011;40172;53.022;7.012;2023-06-26T12:19:24;7.18;;;1.70;;
54259;SDS011;40172;53.022;7.012;2023-06-26T12:21:51;5.95;;;2.00;;
54259;SDS011;40172;53.022;7.012;2023-06-26T12:24:21;5.88;;;1.70;;
54259;SDS011;40172;53.022;7.012;2023-06-26T12:26:50;4.18;;;1.90;;
54259;SDS011;40172;53.022;7.012;2023-06-26T12:29:19;6.72;;;1.80;;
54259;SDS011;40172;53.022;7.012;2023-06-26T12:31:49;7.85;;;1.95;;
54259;SDS011;40172;53.022;7.012;2023-06-26T12:34:17;6.20;;;1.75;;
54259;SDS011;40172;53.022;7.012;2023-06-26T12:37:07;8.30;;;1.80;;
54259;SDS011;40172;53.022;7.012;2023-06-26T12:42:23;7.10;;;1.50;;
54259;SDS011;40172;53.022;7.012;2023-06-26T12:44:50;7.00;;;1.77;;
54259;SDS011;40172;53.022;7.012;2023-06-26T12:47:17;5.97;;;1.67;;
54259;SDS011;40172;53.022;7.012;2023-06-26T12:49:49;6.82;;;1.60;;
54259;SDS011;40172;53.022;7.012;2023-06-26T12:52:16;8.88;;;1.52;;
54259;SDS011;40172;53.022;7.012;2023-06-26T12:54:44;5.13;;;1.50;;
54259;SDS011;40172;53.022;7.012;2023-06-26T12:57:11;6.10;;;1.60;;
54259;SDS011;40172;53.022;7.012;2023-06-26T12:59:39;10.80;;;1.88;;
54259;SDS011;40172;53.022;7.012;2023-06-26T13:02:05;5.80;;;1.60;;
54259;SDS011;40172;53.022;7.012;2023-06-26T13:04:32;6.75;;;1.38;;
54259;SDS011;40172;53.022;7.012;2023-06-26T13:06:58;4.22;;;1.60;;
54259;SDS011;40172;53.022;7.012;2023-06-26T13:09:23;4.20;;;1.50;;
54259;SDS011;40172;53.022;7.012;2023-06-26T13:11:50;4.43;;;1.30;;
54259;SDS011;40172;53.022;7.012;2023-06-26T13:14:17;6.10;;;1.40;;
54259;SDS011;40172;53.022;7.012;2023-06-26T13:16:42;5.72;;;1.40;;
54259;SDS011;40172;53.022;7.012;2023-06-26T13:19:08;10.10;;;1.60;;
54259;SDS011;40172;53.022;7.012;2023-06-26T13:21:34;9.13;;;1.80;;
54259;SDS011;40172;53.022;7.012;2023-06-26T13:23:59;3.55;;;1.40;;
54259;SDS011;40172;53.022;7.012;2023-06-26T13:26:25;4.18;;;1.50;;
54259;SDS011;40172;53.022;7.012;2023-06-26T13:28:53;8.88;;;1.55;;
54259;SDS011;40172;53.022;7.012;2023-06-26T13:31:19;7.30;;;1.60;;
54259;SDS011;40172;53.022;7.012;2023-06-26T13:33:46;6.85;;;1.65;;
54259;SDS011;40172;53.022;7.012;2023-06-26T13:36:13;7.05;;;1.83;;
54259;SDS011;40172;53.022;7.012;2023-06-26T13:38:39;6.32;;;1.52;;
54259;SDS011;40172;53.022;7.012;2023-06-26T13:41:05;11.48;;;1.92;;
54259;SDS011;40172;53.022;7.012;2023-06-26T13:43:31;4.47;;;1.52;;
54259;SDS011;40172;53.022;7.012;2023-06-26T13:45:56;5.25;;;1.70;;
54259;SDS011;40172;53.022;7.012;2023-06-26T13:48:22;8.55;;;1.95;;
54259;SDS011;40172;53.022;7.012;2023-06-26T13:50:50;5.82;;;1.40;;
54259;SDS011;40172;53.022;7.012;2023-06-26T13:53:16;6.65;;;1.65;;
54259;SDS011;40172;53.022;7.012;2023-06-26T13:55:42;7.38;;;2.00;;
54259;SDS011;40172;53.022;7.012;2023-06-26T13:58:08;7.10;;;1.73;;
54259;SDS011;40172;53.022;7.012;2023-06-26T14:00:34;7.68;;;1.60;;
54259;SDS011;40172;53.022;7.012;2023-06-26T14:03:01;6.65;;;1.77;;
54259;SDS011;40172;53.022;7.012;2023-06-26T14:05:28;5.68;;;1.52;;
54259;SDS011;40172;53.022;7.012;2023-06-26T14:07:54;9.80;;;1.80;;
54259;SDS011;40172;53.022;7.012;2023-06-26T14:10:23;6.97;;;1.50;;
54259;SDS011;40172;53.022;7.012;2023-06-26T14:12:49;8.20;;;1.50;;
54259;SDS011;40172;53.022;7.012;2023-06-26T14:15:15;5.45;;;1.20;;
54259;SDS011;40172;53.022;7.012;2023-06-26T14:17:40;5.35;;;1.50;;
54259;SDS011;40172;53.022;7.012;2023-06-26T14:20:07;6.45;;;1.83;;
54259;SDS011;40172;53.022;7.012;2023-06-26T14:22:37;6.43;;;1.67;;
54259;SDS011;40172;53.022;7.012;2023-06-26T14:25:04;6.13;;;1.52;;
54259;SDS011;40172;53.022;7.012;2023-06-26T14:27:30;6.35;;;1.60;;
54259;SDS011;40172;53.022;7.012;2023-06-26T14:29:55;12.98;;;1.65;;
54259;SDS011;40172;53.022;7.012;2023-06-26T14:32:21;6.80;;;1.85;;
54259;SDS011;40172;53.022;7.012;2023-06-26T14:34:46;7.85;;;1.52;;
54259;SDS011;40172;53.022;7.012;2023-06-26T14:37:12;5.28;;;1.67;;
54259;SDS011;40172;53.022;7.012;2023-06-26T14:39:37;6.10;;;1.50;;
54259;SDS011;40172;53.022;7.012;2023-06-26T14:42:03;6.07;;;1.77;;
54259;SDS011;40172;53.022;7.012;2023-06-26T14:44:30;5.70;;;2.10;;
54259;SDS011;40172;53.022;7.012;2023-06-26T14:46:55;8.68;;;1.98;;
54259;SDS011;40172;53.022;7.012;2023-06-26T14:49:21;10.32;;;2.03;;
54259;SDS011;40172;53.022;7.012;2023-06-26T14:51:47;6.57;;;2.13;;
54259;SDS011;40172;53.022;7.012;2023-06-26T14:54:13;5.25;;;1.70;;
54259;SDS011;40172;53.022;7.012;2023-06-26T14:56:39;7.72;;;2.00;;